createdAt,value
2023-04-16T00:01:32.917Z,10.60
2023-04-16T00:03:35.308Z,11.93
2023-04-16T00:05:37.576Z,12.73
2023-04-16T00:07:39.643Z,12.50
2023-04-16T00:09:41.644Z,12.93
2023-04-16T00:11:43.573Z,15.37
2023-04-16T00:13:45.607Z,14.43
2023-04-16T00:15:47.588Z,14.03
2023-04-16T00:17:49.862Z,13.80
2023-04-16T00:19:52.074Z,13.37
2023-04-16T00:21:54.179Z,14.27
2023-04-16T00:23:56.243Z,12.90
2023-04-16T00:26:00.133Z,14.00
2023-04-16T00:28:02.429Z,12.27
2023-04-16T00:30:04.776Z,12.53
2023-04-16T00:32:07.626Z,13.43
2023-04-16T00:34:11.239Z,12.57
2023-04-16T00:36:13.671Z,12.77
2023-04-16T00:38:16.052Z,12.60
2023-04-16T00:40:18.286Z,12.90
2023-04-16T00:42:20.454Z,12.10
2023-04-16T00:44:22.462Z,12.87
2023-04-16T00:46:25.083Z,13.17
2023-04-16T00:48:28.280Z,13.10
2023-04-16T00:50:30.620Z,12.90
2023-04-16T00:52:33.174Z,13.43
2023-04-16T00:54:35.906Z,12.83
2023-04-16T00:56:38.217Z,11.67
2023-04-16T00:58:40.478Z,11.83
2023-04-16T01:00:42.552Z,11.00
2023-04-16T01:02:44.601Z,13.10
2023-04-16T01:04:46.720Z,11.77
2023-04-16T01:06:48.893Z,12.27
2023-04-16T01:08:50.934Z,13.20
2023-04-16T01:10:52.965Z,14.20
2023-04-16T01:12:54.970Z,13.47
2023-04-16T01:14:57.239Z,14.60
2023-04-16T01:16:59.269Z,15.60
2023-04-16T01:19:01.354Z,16.83
2023-04-16T01:21:04.142Z,15.37
2023-04-16T01:23:06.243Z,19.10
2023-04-16T01:25:08.401Z,17.43
2023-04-16T01:27:10.514Z,19.63
2023-04-16T01:29:12.531Z,19.17
2023-04-16T01:31:14.562Z,20.13
2023-04-16T01:33:26.276Z,23.33
2023-04-16T01:35:29.515Z,24.70
2023-04-16T01:37:31.963Z,24.63
2023-04-16T01:39:33.959Z,25.60
2023-04-16T01:41:36.193Z,26.27
2023-04-16T01:43:40.195Z,25.30
2023-04-16T01:45:42.549Z,27.60
2023-04-16T01:47:44.933Z,28.90
2023-04-16T01:49:48.261Z,29.77
2023-04-16T01:51:50.260Z,28.03
2023-04-16T01:53:52.351Z,33.03
2023-04-16T01:55:54.330Z,29.37
2023-04-16T01:57:56.375Z,29.50
2023-04-16T02:00:02.423Z,30.90
2023-04-16T02:02:11.426Z,30.37
2023-04-16T02:04:14.299Z,32.60
2023-04-16T02:06:17.079Z,34.63
2023-04-16T02:08:19.351Z,32.33
2023-04-16T02:10:22.231Z,34.17
2023-04-16T02:12:24.619Z,34.13
2023-04-16T02:14:26.580Z,32.60
2023-04-16T02:16:29.052Z,30.43
2023-04-16T02:18:53.064Z,31.20
2023-04-16T02:20:58.751Z,31.47
2023-04-16T02:23:01.160Z,29.67
2023-04-16T02:25:03.925Z,29.90
2023-04-16T02:27:06.617Z,29.53
2023-04-16T02:29:08.971Z,31.50
2023-04-16T02:31:19.527Z,29.73
2023-04-16T02:33:25.978Z,27.83
2023-04-16T02:35:37.732Z,28.57
2023-04-16T02:37:40.851Z,25.40
2023-04-16T02:39:44.002Z,28.00
2023-04-16T02:41:46.376Z,27.20
2023-04-16T02:43:48.725Z,25.53
2023-04-16T02:45:50.839Z,26.40
2023-04-16T02:47:52.965Z,24.20
2023-04-16T02:49:55.185Z,24.60
2023-04-16T02:51:57.186Z,23.33
2023-04-16T02:53:59.294Z,26.17
2023-04-16T02:56:01.286Z,23.40
2023-04-16T02:58:03.418Z,23.47
2023-04-16T03:00:06.315Z,25.57
2023-04-16T03:02:08.375Z,23.97
2023-04-16T03:04:10.475Z,26.67
2023-04-16T03:06:12.818Z,23.80
2023-04-16T03:08:14.771Z,22.57
2023-04-16T03:10:17.140Z,22.47
2023-04-16T03:12:19.137Z,22.27
2023-04-16T03:14:21.138Z,23.70
2023-04-16T03:16:23.451Z,23.40
2023-04-16T03:18:25.782Z,24.13
2023-04-16T03:20:28.050Z,24.47
2023-04-16T03:22:30.143Z,24.70
2023-04-16T03:24:32.321Z,23.57
2023-04-16T03:26:34.898Z,22.53
2023-04-16T03:28:37.065Z,24.30
2023-04-16T03:30:39.041Z,24.20
2023-04-16T03:32:41.993Z,24.30
2023-04-16T03:34:45.096Z,23.20
2023-04-16T03:36:47.237Z,24.30
2023-04-16T03:38:49.837Z,23.20
2023-04-16T03:40:52.638Z,23.70
2023-04-16T03:42:54.793Z,22.10
2023-04-16T03:44:57.431Z,20.80
2023-04-16T03:46:59.607Z,22.70
2023-04-16T03:49:01.892Z,21.53
2023-04-16T03:51:04.499Z,22.70
2023-04-16T03:53:08.696Z,21.50
2023-04-16T03:55:11.089Z,22.57
2023-04-16T03:57:13.100Z,20.90
2023-04-16T03:59:15.277Z,21.10
2023-04-16T04:01:17.326Z,23.17
2023-04-16T04:03:19.945Z,22.90
2023-04-16T04:05:24.503Z,23.17
2023-04-16T04:07:27.496Z,24.50
2023-04-16T04:09:29.531Z,22.60
2023-04-16T04:11:31.723Z,24.20
2023-04-16T04:13:33.736Z,23.70
2023-04-16T04:15:35.858Z,25.83
2023-04-16T04:17:37.989Z,24.97
2023-04-16T04:19:47.033Z,26.60
2023-04-16T04:21:53.457Z,24.73
2023-04-16T04:23:56.115Z,26.00
2023-04-16T04:25:59.572Z,25.50
2023-04-16T04:28:01.639Z,25.97
2023-04-16T04:30:06.891Z,27.40
2023-04-16T04:32:09.276Z,28.20
2023-04-16T04:34:11.251Z,27.00
2023-04-16T04:36:13.580Z,27.40
2023-04-16T04:38:19.764Z,32.33
2023-04-16T04:40:22.916Z,29.60
2023-04-16T04:42:24.983Z,28.43
2023-04-16T04:44:29.350Z,33.00
2023-04-16T04:46:31.889Z,33.10
2023-04-16T04:48:33.888Z,30.77
2023-04-16T04:50:36.855Z,32.50
2023-04-16T04:52:38.901Z,31.70
2023-04-16T04:54:42.284Z,30.03
2023-04-16T04:56:47.396Z,29.77
2023-04-16T04:58:50.952Z,30.80
2023-04-16T05:00:54.626Z,34.60
2023-04-16T05:02:56.860Z,32.70
2023-04-16T05:04:59.024Z,33.60
2023-04-16T05:07:02.449Z,32.67
2023-04-16T05:09:04.500Z,33.47
2023-04-16T05:11:06.658Z,33.50
2023-04-16T05:13:08.749Z,34.17
2023-04-16T05:15:11.005Z,33.87
2023-04-16T05:17:13.202Z,32.90
2023-04-16T05:19:17.186Z,32.47
2023-04-16T05:21:19.145Z,31.67
2023-04-16T05:23:21.280Z,32.80
2023-04-16T05:25:24.828Z,30.80
2023-04-16T05:27:26.812Z,30.57
2023-04-16T05:29:28.829Z,32.50
2023-04-16T05:31:30.870Z,30.40
2023-04-16T05:33:32.983Z,31.80
2023-04-16T05:35:35.167Z,30.67
2023-04-16T05:37:37.194Z,31.47
2023-04-16T05:39:39.210Z,31.00
2023-04-16T05:41:41.221Z,32.57
2023-04-16T05:43:43.369Z,32.30
2023-04-16T05:45:45.726Z,33.87
2023-04-16T05:47:47.971Z,32.00
2023-04-16T05:49:49.978Z,30.20
2023-04-16T05:51:52.108Z,29.90
2023-04-16T05:53:54.095Z,31.00
2023-04-16T05:55:56.119Z,31.10
2023-04-16T05:57:58.269Z,32.53
2023-04-16T06:00:00.335Z,33.43
2023-04-16T06:02:02.449Z,34.87
2023-04-16T06:04:04.814Z,34.97
2023-04-16T06:06:08.866Z,33.63
2023-04-16T06:08:11.108Z,33.50
2023-04-16T06:10:13.189Z,34.07
2023-04-16T06:12:15.428Z,32.30
2023-04-16T06:14:17.469Z,32.73
2023-04-16T06:16:19.495Z,31.70
2023-04-16T06:18:21.570Z,30.47
2023-04-16T06:20:23.567Z,33.00
2023-04-16T06:22:25.658Z,29.83
2023-04-16T06:24:27.630Z,31.37
2023-04-16T06:26:29.616Z,28.80
2023-04-16T06:28:31.600Z,30.60
2023-04-16T06:30:33.671Z,29.37
2023-04-16T06:32:35.702Z,31.30
2023-04-16T06:34:38.689Z,29.83
2023-04-16T06:36:40.788Z,30.33
2023-04-16T06:38:45.895Z,29.73
2023-04-16T06:40:49.497Z,30.80
2023-04-16T06:42:51.532Z,29.37
2023-04-16T06:44:53.564Z,30.10
2023-04-16T06:46:55.651Z,29.30
2023-04-16T06:48:57.644Z,27.73
2023-04-16T06:51:02.723Z,25.40
2023-04-16T06:53:04.704Z,28.60
2023-04-16T06:55:09.721Z,27.20
2023-04-16T06:57:11.802Z,28.20
2023-04-16T06:59:13.825Z,28.30
2023-04-16T07:01:15.964Z,27.87
2023-04-16T07:03:17.999Z,27.73
2023-04-16T07:05:20.098Z,26.57
2023-04-16T07:07:22.128Z,26.17
2023-04-16T07:09:24.149Z,26.43
2023-04-16T07:11:26.688Z,25.77
2023-04-16T07:13:28.803Z,26.60
2023-04-16T07:15:30.905Z,25.57
2023-04-16T07:17:32.946Z,24.17
2023-04-16T07:19:37.871Z,25.93
2023-04-16T07:21:42.106Z,24.77
2023-04-16T07:23:44.377Z,24.80
2023-04-16T07:25:46.384Z,25.37
2023-04-16T07:27:48.459Z,23.37
2023-04-16T07:29:50.927Z,24.47
2023-04-16T07:31:53.103Z,24.63
2023-04-16T07:33:55.481Z,23.47
2023-04-16T07:35:57.616Z,24.40
2023-04-16T07:37:59.816Z,22.83
2023-04-16T07:40:01.805Z,23.40
2023-04-16T07:42:03.869Z,23.40
2023-04-16T07:44:05.873Z,20.73
2023-04-16T07:46:07.905Z,20.27
2023-04-16T07:48:09.957Z,21.10
2023-04-16T07:50:12.608Z,20.60
2023-04-16T07:52:14.823Z,19.53
2023-04-16T07:54:16.895Z,20.73
2023-04-16T07:56:18.972Z,19.50
2023-04-16T07:58:21.063Z,20.27
2023-04-16T08:00:23.252Z,18.10
2023-04-16T08:02:25.698Z,18.07
2023-04-16T08:04:28.012Z,19.80
2023-04-16T08:06:30.115Z,21.23
2023-04-16T08:08:32.185Z,19.70
2023-04-16T08:10:34.264Z,19.60
2023-04-16T08:12:36.446Z,19.90
2023-04-16T08:14:38.593Z,20.57
2023-04-16T08:16:40.748Z,20.93
2023-04-16T08:18:42.830Z,20.20
2023-04-16T08:20:44.917Z,20.97
2023-04-16T08:22:46.975Z,20.50
2023-04-16T08:24:48.989Z,19.70
2023-04-16T08:26:51.009Z,20.73
2023-04-16T08:28:53.026Z,17.30
2023-04-16T08:30:55.366Z,17.00
2023-04-16T08:32:57.980Z,17.23
2023-04-16T08:35:00.384Z,17.10
2023-04-16T08:37:02.504Z,16.07
2023-04-16T08:39:04.986Z,17.73
2023-04-16T08:41:09.905Z,17.00
2023-04-16T08:43:13.860Z,14.93
2023-04-16T08:45:18.125Z,16.47
2023-04-16T08:47:22.802Z,16.23
2023-04-16T08:49:26.492Z,17.20
2023-04-16T08:51:30.199Z,17.60
2023-04-16T08:54:05.560Z,17.17
2023-04-16T08:56:10.141Z,17.00
2023-04-16T08:58:18.965Z,17.90
2023-04-16T09:00:21.567Z,18.77
2023-04-16T09:02:24.032Z,19.07
2023-04-16T09:04:28.269Z,17.00
2023-04-16T09:06:31.458Z,18.77
2023-04-16T09:08:34.752Z,17.00
2023-04-16T09:10:36.738Z,18.00
2023-04-16T09:12:40.347Z,14.73
2023-04-16T09:14:43.168Z,15.77
2023-04-16T09:16:48.827Z,15.80
2023-04-16T09:18:52.369Z,13.80
2023-04-16T09:20:56.385Z,16.10
2023-04-16T09:22:58.556Z,18.87
2023-04-16T09:25:01.057Z,18.20
2023-04-16T09:27:03.677Z,15.23
2023-04-16T09:29:05.927Z,15.60
2023-04-16T09:31:09.514Z,14.33
2023-04-16T09:33:22.574Z,15.17
2023-04-16T09:35:25.592Z,15.40
2023-04-16T09:37:31.376Z,15.30
2023-04-16T09:39:33.551Z,16.53
2023-04-16T09:41:36.179Z,14.73
2023-04-16T09:43:39.051Z,15.53
2023-04-16T09:45:55.228Z,18.30
2023-04-16T09:48:04.311Z,17.43
2023-04-16T09:50:08.168Z,18.33
2023-04-16T09:52:17.119Z,17.77
2023-04-16T09:54:20.335Z,18.40
2023-04-16T09:56:26.212Z,18.67
2023-04-16T09:58:29.205Z,17.17
2023-04-16T10:00:31.711Z,19.07
2023-04-16T10:02:34.808Z,18.57
2023-04-16T10:04:53.362Z,16.60
2023-04-16T10:07:14.090Z,16.97
2023-04-16T10:09:16.272Z,18.07
2023-04-16T10:11:20.026Z,18.97
2023-04-16T10:13:22.391Z,19.33
2023-04-16T10:15:24.617Z,18.70
2023-04-16T10:17:30.111Z,18.27
2023-04-16T10:19:32.512Z,18.73
2023-04-16T10:21:34.762Z,17.87
2023-04-16T10:23:36.953Z,21.87
2023-04-16T10:25:39.210Z,19.90
2023-04-16T10:27:41.613Z,20.30
2023-04-16T10:29:44.429Z,19.90
2023-04-16T10:31:47.300Z,21.67
2023-04-16T10:33:49.781Z,20.97
2023-04-16T10:36:06.726Z,20.03
2023-04-16T10:38:25.945Z,21.73
2023-04-16T10:40:28.312Z,21.47
2023-04-16T10:42:31.570Z,21.20
2023-04-16T10:44:33.791Z,21.10
2023-04-16T10:46:40.834Z,22.83
2023-04-16T10:48:49.789Z,23.43
2023-04-16T10:50:57.713Z,24.77
2023-04-16T10:53:29.155Z,23.77
2023-04-16T10:55:31.346Z,24.50
2023-04-16T10:57:33.666Z,25.07
2023-04-16T10:59:42.460Z,25.47
2023-04-16T11:01:49.038Z,24.87
2023-04-16T11:03:52.286Z,24.23
2023-04-16T11:05:55.244Z,23.87
2023-04-16T11:08:14.208Z,22.17
2023-04-16T11:10:16.590Z,22.97
2023-04-16T11:12:38.429Z,22.77
2023-04-16T11:14:41.838Z,23.43
2023-04-16T11:16:43.998Z,22.73
2023-04-16T11:18:51.012Z,24.90
2023-04-16T11:20:53.934Z,20.20
2023-04-16T11:22:57.418Z,22.83
2023-04-16T11:24:59.603Z,23.73
2023-04-16T11:27:01.881Z,22.80
2023-04-16T11:29:14.233Z,20.97
2023-04-16T11:31:16.653Z,20.63
2023-04-16T11:33:18.970Z,22.63
2023-04-16T11:35:21.239Z,20.60
2023-04-16T11:37:37.267Z,22.80
2023-04-16T11:39:49.794Z,23.17
2023-04-16T11:41:56.035Z,22.70
2023-04-16T11:43:58.313Z,23.13
2023-04-16T11:46:20.021Z,20.67
2023-04-16T11:48:50.818Z,19.60
2023-04-16T11:50:59.011Z,20.97
2023-04-16T11:53:05.667Z,20.70
2023-04-16T11:55:08.126Z,20.00
2023-04-16T11:57:11.438Z,19.17
2023-04-16T11:59:19.920Z,20.70
2023-04-16T12:01:22.157Z,19.40
2023-04-16T12:03:46.210Z,19.27
2023-04-16T12:05:48.827Z,20.40
2023-04-16T12:07:51.024Z,18.93
2023-04-16T12:10:06.159Z,20.10
2023-04-16T12:12:33.435Z,19.27
2023-04-16T12:14:35.590Z,17.53
2023-04-16T12:16:38.098Z,20.30
2023-04-16T12:18:59.148Z,18.60
2023-04-16T12:21:05.020Z,18.20
2023-04-16T12:23:08.200Z,19.20
2023-04-16T12:25:17.854Z,18.83
2023-04-16T12:27:20.041Z,17.23
2023-04-16T12:29:24.433Z,21.70
2023-04-16T12:31:38.785Z,17.60
2023-04-16T12:33:42.505Z,20.53
2023-04-16T12:35:45.174Z,20.30
2023-04-16T12:37:47.326Z,19.90
2023-04-16T12:39:49.636Z,19.80
2023-04-16T12:41:51.995Z,21.97
2023-04-16T12:44:04.635Z,20.20
2023-04-16T12:46:06.895Z,21.53
2023-04-16T12:48:09.250Z,18.97
2023-04-16T12:50:11.477Z,21.10
2023-04-16T12:52:13.592Z,21.00
2023-04-16T12:54:15.883Z,19.67
2023-04-16T12:56:18.095Z,20.30
2023-04-16T12:58:20.339Z,21.67
2023-04-16T13:00:22.728Z,19.60
2023-04-16T13:02:26.115Z,18.07
2023-04-16T13:04:28.563Z,19.53
2023-04-16T13:06:34.155Z,18.90
2023-04-16T13:08:37.464Z,18.03
2023-04-16T13:10:39.732Z,17.30
2023-04-16T13:12:41.925Z,16.40
2023-04-16T13:14:45.091Z,16.23
2023-04-16T13:16:47.407Z,16.93
2023-04-16T13:18:49.933Z,16.60
2023-04-16T13:20:52.307Z,17.17
2023-04-16T13:22:54.476Z,16.93
2023-04-16T13:24:57.122Z,17.23
2023-04-16T13:26:59.449Z,17.60
2023-04-16T13:29:01.678Z,18.67
2023-04-16T13:31:05.802Z,18.23
2023-04-16T13:33:09.107Z,18.60
2023-04-16T13:35:11.825Z,19.00
2023-04-16T13:37:14.067Z,17.77
2023-04-16T13:39:16.576Z,16.67
2023-04-16T13:41:18.741Z,16.77
2023-04-16T13:43:22.338Z,16.10
2023-04-16T13:45:24.586Z,16.60
2023-04-16T13:47:27.050Z,17.67
2023-04-16T13:49:29.272Z,16.17
2023-04-16T13:51:32.107Z,15.97
2023-04-16T13:53:34.587Z,15.77
2023-04-16T13:55:36.868Z,13.00
2023-04-16T13:57:39.201Z,13.80
2023-04-16T13:59:41.452Z,12.50
2023-04-16T14:01:43.646Z,11.83
2023-04-16T14:03:45.985Z,11.00
2023-04-16T14:05:48.316Z,11.80
2023-04-16T14:07:51.136Z,11.20
2023-04-16T14:09:54.143Z,9.63
2023-04-16T14:11:56.343Z,10.10
2023-04-16T14:13:58.620Z,8.50
2023-04-16T14:16:01.117Z,8.10
2023-04-16T14:18:03.937Z,9.97
2023-04-16T14:20:06.994Z,8.50
2023-04-16T14:22:09.520Z,8.50
2023-04-16T14:24:11.833Z,8.40
2023-04-16T14:26:14.444Z,9.30
2023-04-16T14:28:17.170Z,9.37
2023-04-16T14:30:19.586Z,7.90
2023-04-16T14:32:21.796Z,8.53
2023-04-16T14:34:24.023Z,9.77
2023-04-16T14:36:26.456Z,10.30
2023-04-16T14:38:28.744Z,10.00
2023-04-16T14:40:30.903Z,10.03
2023-04-16T14:42:33.033Z,10.10
2023-04-16T14:44:35.326Z,9.63
2023-04-16T14:46:38.586Z,10.43
2023-04-16T14:48:40.880Z,11.70
2023-04-16T14:50:44.251Z,11.40
2023-04-16T14:52:46.500Z,11.33
2023-04-16T14:54:48.691Z,11.33
2023-04-16T14:56:50.962Z,11.57
2023-04-16T14:58:53.110Z,12.40
2023-04-16T15:00:55.592Z,13.43
2023-04-16T15:02:58.669Z,13.60
2023-04-16T15:05:01.319Z,13.77
2023-04-16T15:07:03.511Z,12.50
2023-04-16T15:09:07.100Z,12.73
2023-04-16T15:11:09.240Z,12.67
2023-04-16T15:13:11.429Z,13.40
2023-04-16T15:15:13.676Z,13.83
2023-04-16T15:17:15.966Z,14.33
2023-04-16T15:19:18.203Z,13.40
2023-04-16T15:21:20.951Z,16.30
2023-04-16T15:23:23.178Z,14.53
2023-04-16T15:25:25.758Z,16.03
2023-04-16T15:27:27.967Z,16.93
2023-04-16T15:29:30.100Z,15.83
2023-04-16T15:31:32.348Z,14.17
2023-04-16T15:33:34.620Z,13.90
2023-04-16T15:35:38.870Z,13.07
2023-04-16T15:37:41.180Z,11.73
2023-04-16T15:39:44.564Z,13.00
2023-04-16T15:41:59.897Z,13.50
2023-04-16T15:44:03.880Z,13.83
2023-04-16T15:46:06.648Z,12.70
2023-04-16T15:48:09.047Z,14.00
2023-04-16T15:50:11.367Z,12.10
2023-04-16T15:52:13.641Z,13.43
2023-04-16T15:54:15.895Z,13.20
2023-04-16T15:56:18.112Z,12.70
2023-04-16T15:58:21.023Z,11.80
2023-04-16T16:00:24.002Z,11.87
2023-04-16T16:02:26.552Z,12.10
2023-04-16T16:04:29.032Z,13.37
2023-04-16T16:06:31.629Z,12.50
2023-04-16T16:08:38.404Z,12.70
2023-04-16T16:10:41.065Z,12.33
2023-04-16T16:12:43.397Z,12.43
2023-04-16T16:14:45.648Z,12.10
2023-04-16T16:16:48.134Z,11.10
2023-04-16T16:18:50.412Z,11.20
2023-04-16T16:20:57.151Z,12.20
2023-04-16T16:22:59.346Z,11.77
2023-04-16T16:25:01.802Z,12.47
2023-04-16T16:27:04.303Z,11.93
2023-04-16T16:29:07.210Z,12.60
2023-04-16T16:31:09.472Z,13.67
2023-04-16T16:33:11.696Z,16.63
2023-04-16T16:35:13.900Z,16.43
2023-04-16T16:37:16.051Z,15.80
2023-04-16T16:39:18.306Z,14.30
2023-04-16T16:41:20.643Z,15.80
2023-04-16T16:43:23.125Z,14.77
2023-04-16T16:45:27.176Z,16.03
2023-04-16T16:47:29.404Z,14.43
2023-04-16T16:49:31.767Z,15.03
2023-04-16T16:51:33.999Z,15.30
2023-04-16T16:53:36.143Z,14.67
2023-04-16T16:55:38.382Z,14.97
2023-04-16T16:57:40.561Z,15.17
2023-04-16T16:59:42.891Z,14.40
2023-04-16T17:01:45.070Z,14.53
2023-04-16T17:03:47.384Z,14.80
2023-04-16T17:05:49.599Z,14.57
2023-04-16T17:07:51.905Z,14.80
2023-04-16T17:09:54.053Z,13.10
2023-04-16T17:11:56.982Z,14.50
2023-04-16T17:13:59.155Z,14.03
2023-04-16T17:16:01.524Z,13.43
2023-04-16T17:18:03.771Z,13.80
2023-04-16T17:20:09.652Z,17.03
2023-04-16T17:22:11.964Z,15.40
2023-04-16T17:24:14.148Z,14.63
2023-04-16T17:26:16.413Z,15.10
2023-04-16T17:28:18.702Z,15.70
2023-04-16T17:30:20.961Z,14.80
2023-04-16T17:32:23.215Z,15.00
2023-04-16T17:34:25.521Z,14.10
2023-04-16T17:36:27.921Z,14.70
2023-04-16T17:38:30.160Z,15.17
2023-04-16T17:40:32.397Z,16.10
2023-04-16T17:42:35.730Z,15.60
2023-04-16T17:44:37.997Z,16.27
2023-04-16T17:46:40.139Z,16.80
2023-04-16T17:48:44.015Z,16.50
2023-04-16T17:50:46.224Z,14.77
2023-04-16T17:52:48.449Z,15.47
2023-04-16T17:54:50.823Z,16.80
2023-04-16T17:56:53.054Z,15.90
2023-04-16T17:58:55.210Z,16.60
2023-04-16T18:00:57.570Z,16.37
2023-04-16T18:03:00.162Z,16.07
2023-04-16T18:05:02.564Z,16.40
2023-04-16T18:07:04.685Z,16.77
2023-04-16T18:09:07.031Z,15.77
2023-04-16T18:11:09.681Z,17.50
2023-04-16T18:13:11.845Z,16.20
2023-04-16T18:15:20.937Z,17.33
2023-04-16T18:17:23.512Z,16.37
2023-04-16T18:19:25.873Z,16.20
2023-04-16T18:21:29.828Z,17.57
2023-04-16T18:23:32.024Z,19.03
2023-04-16T18:25:35.242Z,17.80
2023-04-16T18:27:37.760Z,18.70
2023-04-16T18:29:40.666Z,18.60
2023-04-16T18:31:43.202Z,18.07
2023-04-16T18:33:56.449Z,19.40
2023-04-16T18:36:02.265Z,19.93
2023-04-16T18:38:04.448Z,19.60
2023-04-16T18:40:07.474Z,20.00
2023-04-16T18:42:09.654Z,19.03
2023-04-16T18:44:12.575Z,19.80
2023-04-16T18:46:14.923Z,19.20
2023-04-16T18:48:17.206Z,18.57
2023-04-16T18:50:19.327Z,20.30
2023-04-16T18:52:21.484Z,18.63
2023-04-16T18:54:23.788Z,19.20
2023-04-16T18:56:26.029Z,19.30
2023-04-16T18:58:28.264Z,18.97
2023-04-16T19:00:30.690Z,20.73
2023-04-16T19:02:32.885Z,21.03
2023-04-16T19:04:35.393Z,19.57
2023-04-16T19:06:37.781Z,17.90
2023-04-16T19:08:40.001Z,18.07
2023-04-16T19:10:42.127Z,19.30
2023-04-16T19:12:44.350Z,18.83
2023-04-16T19:14:46.556Z,16.63
2023-04-16T19:16:48.797Z,16.20
2023-04-16T19:18:51.528Z,17.13
2023-04-16T19:21:03.546Z,14.13
2023-04-16T19:23:06.057Z,14.77
2023-04-16T19:25:08.673Z,14.40
2023-04-16T19:27:12.013Z,13.90
2023-04-16T19:29:14.173Z,13.67
2023-04-16T19:31:16.467Z,13.97
2023-04-16T19:33:19.045Z,13.70
2023-04-16T19:35:21.271Z,13.90
2023-04-16T19:37:23.550Z,14.93
2023-04-16T19:39:28.498Z,13.40
2023-04-16T19:41:30.712Z,14.60
2023-04-16T19:43:32.888Z,15.27
2023-04-16T19:45:35.204Z,16.10
2023-04-16T19:47:37.442Z,13.10
2023-04-16T19:49:39.730Z,15.20
2023-04-16T19:51:41.930Z,15.00
2023-04-16T19:53:44.065Z,13.70
2023-04-16T19:55:46.262Z,11.90
2023-04-16T19:57:48.474Z,11.60
2023-04-16T19:59:50.936Z,11.67
2023-04-16T20:01:53.080Z,10.60
2023-04-16T20:03:55.402Z,10.13
2023-04-16T20:05:57.620Z,10.17
2023-04-16T20:07:59.925Z,10.07
2023-04-16T20:10:03.030Z,10.13
2023-04-16T20:12:05.654Z,10.63
2023-04-16T20:14:07.866Z,10.00
2023-04-16T20:16:13.587Z,11.00
2023-04-16T20:18:15.861Z,10.40
2023-04-16T20:20:18.095Z,10.30
2023-04-16T20:22:20.509Z,11.00
2023-04-16T20:24:23.916Z,11.50
2023-04-16T20:26:28.397Z,10.50
2023-04-16T20:28:30.649Z,10.30
2023-04-16T20:30:38.723Z,11.43
2023-04-16T20:32:41.176Z,10.00
2023-04-16T20:34:43.545Z,10.30
2023-04-16T20:36:45.865Z,10.13
2023-04-16T20:38:48.067Z,8.40
2023-04-16T20:41:06.208Z,9.00
2023-04-16T20:43:10.341Z,8.40
2023-04-16T20:45:12.665Z,10.43
2023-04-16T20:47:15.411Z,10.20
2023-04-16T20:49:18.493Z,10.03
2023-04-16T20:51:21.568Z,8.80
2023-04-16T20:53:23.704Z,9.47
2023-04-16T20:55:25.861Z,8.93
2023-04-16T20:57:29.632Z,8.87
2023-04-16T20:59:31.867Z,9.70
2023-04-16T21:01:34.123Z,9.70
2023-04-16T21:03:37.162Z,10.10
2023-04-16T21:05:41.812Z,9.93
2023-04-16T21:07:44.037Z,9.70
2023-04-16T21:09:46.302Z,10.10
2023-04-16T21:11:48.482Z,9.23
2023-04-16T21:13:50.684Z,9.57
2023-04-16T21:15:53.111Z,10.50
2023-04-16T21:17:55.392Z,10.93
2023-04-16T21:19:57.640Z,9.33
2023-04-16T21:21:59.767Z,9.30
2023-04-16T21:24:02.008Z,8.50
2023-04-16T21:26:04.167Z,8.00
2023-04-16T21:28:06.410Z,9.30
2023-04-16T21:30:09.383Z,9.00
2023-04-16T21:32:11.591Z,8.50
2023-04-16T21:34:13.733Z,8.67
2023-04-16T21:36:15.973Z,7.87
2023-04-16T21:38:18.355Z,8.67
2023-04-16T21:40:20.863Z,8.20
2023-04-16T21:42:23.056Z,8.23
2023-04-16T21:44:25.324Z,7.90
2023-04-16T21:46:27.859Z,7.53
2023-04-16T21:52:46.762Z,7.03
2023-04-16T21:54:48.936Z,7.50
2023-04-16T21:56:51.067Z,7.83
2023-04-16T21:58:53.246Z,7.77
2023-04-16T22:00:55.908Z,6.93
2023-04-16T22:03:00.110Z,6.90
2023-04-16T22:05:02.414Z,7.30
2023-04-16T22:07:05.970Z,7.13
2023-04-16T22:09:09.558Z,6.50
2023-04-16T22:11:12.136Z,7.23
2023-04-16T22:13:14.270Z,7.03
2023-04-16T22:15:16.461Z,6.67
2023-04-16T22:17:18.679Z,7.30
2023-04-16T22:19:21.634Z,7.13
2023-04-16T22:21:23.899Z,7.27
2023-04-16T22:23:26.285Z,7.13
2023-04-16T22:25:28.533Z,7.00
2023-04-16T22:27:30.820Z,7.13
2023-04-16T22:29:32.948Z,6.83
2023-04-16T22:31:35.001Z,6.87
2023-04-16T22:33:37.047Z,7.20
2023-04-16T22:35:39.072Z,8.43
2023-04-16T22:37:41.386Z,6.73
2023-04-16T22:39:43.531Z,7.20
2023-04-16T22:41:45.601Z,6.80
2023-04-16T22:43:47.560Z,7.07
2023-04-16T22:45:49.717Z,7.23
2023-04-16T22:47:51.896Z,7.20
2023-04-16T22:49:53.971Z,7.83
2023-04-16T22:51:56.029Z,7.80
2023-04-16T22:53:58.065Z,7.93
2023-04-16T22:56:00.203Z,8.60
2023-04-16T22:58:02.284Z,8.00
2023-04-16T23:00:06.964Z,9.17
2023-04-16T23:02:09.077Z,10.80
2023-04-16T23:04:11.375Z,9.30
2023-04-16T23:06:13.481Z,9.50
2023-04-16T23:08:15.448Z,9.43
2023-04-16T23:10:17.537Z,9.40
2023-04-16T23:12:19.623Z,10.47
2023-04-16T23:14:21.736Z,9.90
2023-04-16T23:16:23.772Z,8.50
2023-04-16T23:18:25.796Z,9.60
2023-04-16T23:20:29.026Z,9.17
2023-04-16T23:22:30.981Z,9.20
2023-04-16T23:24:33.140Z,9.60
2023-04-16T23:26:35.174Z,8.43
2023-04-16T23:28:37.148Z,8.80
2023-04-16T23:30:39.274Z,9.07
2023-04-16T23:32:41.525Z,10.23
2023-04-16T23:34:43.618Z,9.03
2023-04-16T23:36:46.084Z,9.17
2023-04-16T23:38:48.906Z,9.70
2023-04-16T23:40:51.096Z,10.00
2023-04-16T23:42:53.134Z,9.37
2023-04-16T23:44:55.380Z,9.20
2023-04-16T23:46:57.523Z,10.10
2023-04-16T23:48:59.501Z,10.53
2023-04-16T23:51:01.581Z,10.90
2023-04-16T23:53:03.825Z,9.43
2023-04-16T23:55:06.159Z,10.60
2023-04-16T23:57:08.122Z,9.40
2023-04-16T23:59:11.161Z,10.87
